sensor_id;sensor_type;location;lat;lon;timestamp;pressure;altitude;pressure_sealevel;temperature;humidity
34073;BME280;20346;52.702;16.886;2023-04-12T00:07:42;100377.59;;;7.69;71.93
34073;BME280;20346;52.702;16.886;2023-04-12T00:13:16;100378.44;;;7.68;71.94
34073;BME280;20346;52.702;16.886;2023-04-12T00:15:59;100383.26;;;7.67;72.01
34073;BME280;20346;52.702;16.886;2023-04-12T00:18:40;100379.98;;;7.67;71.97
34073;BME280;20346;52.702;16.886;2023-04-12T00:21:21;100379.32;;;7.67;71.94
34073;BME280;20346;52.702;16.886;2023-04-12T00:24:01;100377.27;;;7.66;72.04
34073;BME280;20346;52.702;16.886;2023-04-12T00:29:35;100377.08;;;7.67;72.05
34073;BME280;20346;52.702;16.886;2023-04-12T00:32:15;100377.25;;;7.67;72.07
34073;BME280;20346;52.702;16.886;2023-04-12T00:34:55;100371.77;;;7.65;72.12
34073;BME280;20346;52.702;16.886;2023-04-12T00:43:29;100370.94;;;7.62;72.14
34073;BME280;20346;52.702;16.886;2023-04-12T00:49:03;100368.73;;;7.59;72.16
34073;BME280;20346;52.702;16.886;2023-04-12T00:54:40;100369.75;;;7.60;72.24
34073;BME280;20346;52.702;16.886;2023-04-12T01:11:57;100377.09;;;7.65;72.37
34073;BME280;20346;52.702;16.886;2023-04-12T01:20:25;100374.84;;;7.68;72.43
34073;BME280;20346;52.702;16.886;2023-04-12T01:49:08;100378.69;;;7.58;72.47
34073;BME280;20346;52.702;16.886;2023-04-12T01:51:50;100373.36;;;7.58;72.47
34073;BME280;20346;52.702;16.886;2023-04-12T02:02:58;100373.05;;;7.56;72.56
34073;BME280;20346;52.702;16.886;2023-04-12T02:05:41;100374.60;;;7.55;72.54
34073;BME280;20346;52.702;16.886;2023-04-12T02:14:12;100366.53;;;7.55;72.57
34073;BME280;20346;52.702;16.886;2023-04-12T02:16:52;100366.36;;;7.55;72.71
34073;BME280;20346;52.702;16.886;2023-04-12T02:19:32;100364.48;;;7.54;72.57
34073;BME280;20346;52.702;16.886;2023-04-12T02:22:14;100363.80;;;7.53;72.71
34073;BME280;20346;52.702;16.886;2023-04-12T02:24:58;100361.91;;;7.55;72.72
34073;BME280;20346;52.702;16.886;2023-04-12T02:27:44;100358.82;;;7.54;72.69
34073;BME280;20346;52.702;16.886;2023-04-12T02:30:23;100357.95;;;7.56;72.68
34073;BME280;20346;52.702;16.886;2023-04-12T02:33:03;100357.42;;;7.57;72.67
34073;BME280;20346;52.702;16.886;2023-04-12T02:35:43;100359.16;;;7.56;72.76
34073;BME280;20346;52.702;16.886;2023-04-12T02:38:23;100357.77;;;7.56;72.75
34073;BME280;20346;52.702;16.886;2023-04-12T02:41:03;100358.64;;;7.56;72.73
34073;BME280;20346;52.702;16.886;2023-04-12T02:43:52;100357.77;;;7.57;72.71
34073;BME280;20346;52.702;16.886;2023-04-12T02:49:27;100351.60;;;7.56;72.73
34073;BME280;20346;52.702;16.886;2023-04-12T02:52:10;100350.44;;;7.52;72.73
34073;BME280;20346;52.702;16.886;2023-04-12T02:57:45;100350.42;;;7.53;72.85
34073;BME280;20346;52.702;16.886;2023-04-12T03:03:22;100352.12;;;7.56;72.80
34073;BME280;20346;52.702;16.886;2023-04-12T03:08:54;100348.70;;;7.55;72.88
34073;BME280;20346;52.702;16.886;2023-04-12T03:11:37;100346.64;;;7.55;72.92
34073;BME280;20346;52.702;16.886;2023-04-12T03:14:14;100338.91;;;7.55;72.92
34073;BME280;20346;52.702;16.886;2023-04-12T03:16:54;100339.45;;;7.54;72.84
34073;BME280;20346;52.702;16.886;2023-04-12T03:19:34;100332.09;;;7.52;72.94
34073;BME280;20346;52.702;16.886;2023-04-12T03:22:14;100336.55;;;7.50;72.92
34073;BME280;20346;52.702;16.886;2023-04-12T03:24:54;100336.72;;;7.52;73.04
34073;BME280;20346;52.702;16.886;2023-04-12T03:30:28;100324.87;;;7.54;72.97
34073;BME280;20346;52.702;16.886;2023-04-12T03:33:10;100319.05;;;7.52;73.03
34073;BME280;20346;52.702;16.886;2023-04-12T03:35:50;100321.61;;;7.52;73.04
34073;BME280;20346;52.702;16.886;2023-04-12T03:41:27;100316.63;;;7.53;73.09
34073;BME280;20346;52.702;16.886;2023-04-12T03:44:09;100315.44;;;7.53;73.06
34073;BME280;20346;52.702;16.886;2023-04-12T03:52:37;100315.58;;;7.57;73.14
34073;BME280;20346;52.702;16.886;2023-04-12T03:55:17;100316.60;;;7.57;73.12
34073;BME280;20346;52.702;16.886;2023-04-12T03:58:03;100315.91;;;7.58;73.12
34073;BME280;20346;52.702;16.886;2023-04-12T04:00:41;100317.44;;;7.60;73.16
34073;BME280;20346;52.702;16.886;2023-04-12T04:03:23;100317.77;;;7.61;73.15
34073;BME280;20346;52.702;16.886;2023-04-12T04:06:02;100321.90;;;7.60;73.13
34073;BME280;20346;52.702;16.886;2023-04-12T04:08:41;100317.79;;;7.59;73.25
34073;BME280;20346;52.702;16.886;2023-04-12T04:11:21;100320.86;;;7.60;73.18
34073;BME280;20346;52.702;16.886;2023-04-12T04:17:01;100322.41;;;7.61;73.21
34073;BME280;20346;52.702;16.886;2023-04-12T04:28:26;100317.59;;;7.61;73.20
34073;BME280;20346;52.702;16.886;2023-04-12T04:34:36;100318.28;;;7.62;73.33
34073;BME280;20346;52.702;16.886;2023-04-12T14:28:47;99909.06;;;12.47;64.91
34073;BME280;20346;52.702;16.886;2023-04-12T15:23:33;99857.77;;;11.97;64.04
34073;BME280;20346;52.702;16.886;2023-04-12T15:26:58;99855.60;;;11.89;64.11
34073;BME280;20346;52.702;16.886;2023-04-12T16:17:36;99828.61;;;11.64;62.83
34073;BME280;20346;52.702;16.886;2023-04-12T16:20:10;99825.48;;;11.59;62.79
34073;BME280;20346;52.702;16.886;2023-04-12T16:22:44;99822.71;;;11.54;62.64
34073;BME280;20346;52.702;16.886;2023-04-12T16:28:34;99823.58;;;11.40;62.26
34073;BME280;20346;52.702;16.886;2023-04-12T16:36:44;99826.23;;;11.26;62.56
34073;BME280;20346;52.702;16.886;2023-04-12T16:39:18;99825.70;;;11.21;62.39
34073;BME280;20346;52.702;16.886;2023-04-12T16:41:52;99826.31;;;11.18;62.53
34073;BME280;20346;52.702;16.886;2023-04-12T16:44:26;99828.71;;;11.13;62.45
34073;BME280;20346;52.702;16.886;2023-04-12T16:47:00;99832.11;;;11.09;62.52
34073;BME280;20346;52.702;16.886;2023-04-12T16:49:36;99833.00;;;11.03;62.45
34073;BME280;20346;52.702;16.886;2023-04-12T16:52:09;99829.77;;;10.96;62.55
34073;BME280;20346;52.702;16.886;2023-04-12T16:57:32;99822.42;;;10.77;62.33
34073;BME280;20346;52.702;16.886;2023-04-12T17:00:06;99827.13;;;10.69;62.27
34073;BME280;20346;52.702;16.886;2023-04-12T17:02:39;99826.34;;;10.60;62.39
34073;BME280;20346;52.702;16.886;2023-04-12T17:05:13;99825.87;;;10.53;62.31
34073;BME280;20346;52.702;16.886;2023-04-12T17:07:47;99821.63;;;10.45;62.43
34073;BME280;20346;52.702;16.886;2023-04-12T17:10:20;99824.59;;;10.38;62.41
34073;BME280;20346;52.702;16.886;2023-04-12T17:12:54;99819.58;;;10.33;62.36
34073;BME280;20346;52.702;16.886;2023-04-12T17:15:28;99821.27;;;10.27;62.31
34073;BME280;20346;52.702;16.886;2023-04-12T17:18:03;99819.45;;;10.24;62.27
34073;BME280;20346;52.702;16.886;2023-04-12T17:20:36;99818.00;;;10.21;62.39
34073;BME280;20346;52.702;16.886;2023-04-12T17:23:09;99815.67;;;10.17;62.43
34073;BME280;20346;52.702;16.886;2023-04-12T17:34:07;99811.30;;;10.00;62.36
34073;BME280;20346;52.702;16.886;2023-04-12T17:42:19;99808.31;;;9.89;62.30
34073;BME280;20346;52.702;16.886;2023-04-12T17:47:45;99806.46;;;9.82;62.30
34073;BME280;20346;52.702;16.886;2023-04-12T17:50:19;99806.09;;;9.76;62.29
34073;BME280;20346;52.702;16.886;2023-04-12T17:52:52;99808.78;;;9.72;62.26
34073;BME280;20346;52.702;16.886;2023-04-12T17:55:25;99814.59;;;9.67;62.26
34073;BME280;20346;52.702;16.886;2023-04-12T17:58:00;99817.45;;;9.62;62.26
34073;BME280;20346;52.702;16.886;2023-04-12T18:00:34;99821.16;;;9.58;62.30
34073;BME280;20346;52.702;16.886;2023-04-12T18:03:07;99816.60;;;9.55;62.32
34073;BME280;20346;52.702;16.886;2023-04-12T18:05:41;99816.86;;;9.52;62.29
34073;BME280;20346;52.702;16.886;2023-04-12T18:09:10;99815.98;;;9.45;62.26
34073;BME280;20346;52.702;16.886;2023-04-12T18:12:33;99813.78;;;9.37;62.27
34073;BME280;20346;52.702;16.886;2023-04-12T18:16:00;99814.53;;;9.28;62.26
34073;BME280;20346;52.702;16.886;2023-04-12T18:19:26;99817.76;;;9.22;62.32
34073;BME280;20346;52.702;16.886;2023-04-12T18:22:52;99821.60;;;9.20;62.43
34073;BME280;20346;52.702;16.886;2023-04-12T18:26:18;99827.09;;;9.20;62.44
34073;BME280;20346;52.702;16.886;2023-04-12T18:29:44;99827.48;;;9.18;62.45
34073;BME280;20346;52.702;16.886;2023-04-12T18:33:10;99822.80;;;9.13;62.40
34073;BME280;20346;52.702;16.886;2023-04-12T18:36:36;99819.67;;;9.06;62.44
34073;BME280;20346;52.702;16.886;2023-04-12T18:39:10;99814.42;;;9.02;62.49
34073;BME280;20346;52.702;16.886;2023-04-12T18:41:43;99815.88;;;9.00;62.55
34073;BME280;20346;52.702;16.886;2023-04-12T18:44:17;99814.46;;;8.93;62.49
34073;BME280;20346;52.702;16.886;2023-04-12T18:46:53;99811.98;;;8.88;62.51
34073;BME280;20346;52.702;16.886;2023-04-12T18:49:35;99814.78;;;8.86;62.49
34073;BME280;20346;52.702;16.886;2023-04-12T18:52:14;99815.16;;;8.85;62.48
34073;BME280;20346;52.702;16.886;2023-04-12T18:55:41;99814.16;;;8.84;62.51
34073;BME280;20346;52.702;16.886;2023-04-12T18:59:07;99811.64;;;8.82;62.47
34073;BME280;20346;52.702;16.886;2023-04-12T19:02:34;99808.20;;;8.82;62.62
34073;BME280;20346;52.702;16.886;2023-04-12T19:06:00;99806.46;;;8.83;62.62
34073;BME280;20346;52.702;16.886;2023-04-12T19:56:31;99797.84;;;8.91;62.84
34073;BME280;20346;52.702;16.886;2023-04-12T19:59:04;99791.77;;;8.85;62.87
34073;BME280;20346;52.702;16.886;2023-04-12T20:01:38;99790.20;;;8.81;62.88
34073;BME280;20346;52.702;16.886;2023-04-12T20:04:21;99789.08;;;8.77;62.97
34073;BME280;20346;52.702;16.886;2023-04-12T20:07:09;99786.39;;;8.74;63.07
34073;BME280;20346;52.702;16.886;2023-04-12T20:09:43;99777.70;;;8.71;63.09
34073;BME280;20346;52.702;16.886;2023-04-12T20:12:17;99774.11;;;8.69;63.12
34073;BME280;20346;52.702;16.886;2023-04-12T20:14:50;99775.30;;;8.70;63.17
34073;BME280;20346;52.702;16.886;2023-04-12T20:17:24;99770.98;;;8.72;63.20
34073;BME280;20346;52.702;16.886;2023-04-12T20:19:57;99771.63;;;8.73;63.30
34073;BME280;20346;52.702;16.886;2023-04-12T20:22:31;99761.45;;;8.75;63.29
34073;BME280;20346;52.702;16.886;2023-04-12T20:25:04;99753.33;;;8.77;63.32
34073;BME280;20346;52.702;16.886;2023-04-12T20:27:38;99752.40;;;8.80;63.32
34073;BME280;20346;52.702;16.886;2023-04-12T20:30:11;99751.48;;;8.82;63.45
34073;BME280;20346;52.702;16.886;2023-04-12T20:32:45;99749.50;;;8.85;63.42
34073;BME280;20346;52.702;16.886;2023-04-12T20:35:18;99748.90;;;8.89;63.60
34073;BME280;20346;52.702;16.886;2023-04-12T20:37:52;99747.98;;;8.91;63.62
34073;BME280;20346;52.702;16.886;2023-04-12T20:40:27;99743.48;;;8.92;63.52
34073;BME280;20346;52.702;16.886;2023-04-12T20:43:01;99741.71;;;8.95;63.53
34073;BME280;20346;52.702;16.886;2023-04-12T20:45:36;99744.27;;;8.95;63.61
34073;BME280;20346;52.702;16.886;2023-04-12T20:48:10;99748.01;;;8.98;63.66
34073;BME280;20346;52.702;16.886;2023-04-12T20:50:43;99750.55;;;8.99;63.53
34073;BME280;20346;52.702;16.886;2023-04-12T20:53:20;99749.33;;;9.00;63.59
34073;BME280;20346;52.702;16.886;2023-04-12T20:55:53;99751.55;;;9.01;63.61
34073;BME280;20346;52.702;16.886;2023-04-12T20:58:27;99746.73;;;9.01;63.61
34073;BME280;20346;52.702;16.886;2023-04-12T21:01:01;99743.63;;;9.01;63.73
34073;BME280;20346;52.702;16.886;2023-04-12T21:06:24;99731.84;;;8.99;63.82
34073;BME280;20346;52.702;16.886;2023-04-12T21:08:58;99733.20;;;8.98;63.78
34073;BME280;20346;52.702;16.886;2023-04-12T21:11:33;99731.85;;;8.98;63.83
34073;BME280;20346;52.702;16.886;2023-04-12T21:14:07;99731.71;;;8.96;63.85
34073;BME280;20346;52.702;16.886;2023-04-12T21:16:40;99729.69;;;8.94;63.84
34073;BME280;20346;52.702;16.886;2023-04-12T21:19:16;99729.40;;;8.92;63.85
34073;BME280;20346;52.702;16.886;2023-04-12T21:21:50;99729.27;;;8.91;63.94
34073;BME280;20346;52.702;16.886;2023-04-12T21:24:26;99724.86;;;8.88;63.96
34073;BME280;20346;52.702;16.886;2023-04-12T21:26:59;99724.38;;;8.87;64.01
34073;BME280;20346;52.702;16.886;2023-04-12T21:29:33;99721.48;;;8.85;63.96
34073;BME280;20346;52.702;16.886;2023-04-12T21:32:08;99713.80;;;8.84;63.95
34073;BME280;20346;52.702;16.886;2023-04-12T21:34:41;99715.41;;;8.81;64.12
34073;BME280;20346;52.702;16.886;2023-04-12T21:37:16;99709.80;;;8.79;64.14
34073;BME280;20346;52.702;16.886;2023-04-12T21:39:50;99702.95;;;8.78;64.28
34073;BME280;20346;52.702;16.886;2023-04-12T21:42:23;99702.14;;;8.76;64.35
34073;BME280;20346;52.702;16.886;2023-04-12T21:44:57;99694.09;;;8.75;64.49
34073;BME280;20346;52.702;16.886;2023-04-12T21:47:30;99685.34;;;8.74;64.37
34073;BME280;20346;52.702;16.886;2023-04-12T21:50:04;99680.73;;;8.73;64.34
34073;BME280;20346;52.702;16.886;2023-04-12T21:52:38;99672.66;;;8.73;64.47
34073;BME280;20346;52.702;16.886;2023-04-12T21:55:11;99667.54;;;8.72;64.48
34073;BME280;20346;52.702;16.886;2023-04-12T21:57:45;99659.66;;;8.71;64.49
34073;BME280;20346;52.702;16.886;2023-04-12T22:00:20;99665.18;;;8.70;64.57
34073;BME280;20346;52.702;16.886;2023-04-12T22:02:54;99659.34;;;8.69;64.63
34073;BME280;20346;52.702;16.886;2023-04-12T22:05:27;99657.63;;;8.69;64.74
34073;BME280;20346;52.702;16.886;2023-04-12T22:08:02;99655.26;;;8.68;64.84
34073;BME280;20346;52.702;16.886;2023-04-12T22:10:35;99649.98;;;8.66;64.78
34073;BME280;20346;52.702;16.886;2023-04-12T22:13:09;99650.36;;;8.64;64.91
34073;BME280;20346;52.702;16.886;2023-04-12T22:15:44;99652.30;;;8.62;64.95
34073;BME280;20346;52.702;16.886;2023-04-12T22:18:19;99649.29;;;8.58;64.98
34073;BME280;20346;52.702;16.886;2023-04-12T22:20:53;99652.78;;;8.56;64.87
34073;BME280;20346;52.702;16.886;2023-04-12T22:23:26;99652.33;;;8.53;64.94
34073;BME280;20346;52.702;16.886;2023-04-12T22:26:00;99653.39;;;8.52;64.93
34073;BME280;20346;52.702;16.886;2023-04-12T22:28:34;99652.92;;;8.49;65.03
34073;BME280;20346;52.702;16.886;2023-04-12T22:31:07;99655.21;;;8.48;65.15
34073;BME280;20346;52.702;16.886;2023-04-12T22:33:41;99656.98;;;8.45;65.28
34073;BME280;20346;52.702;16.886;2023-04-12T22:36:14;99655.80;;;8.45;65.22
34073;BME280;20346;52.702;16.886;2023-04-12T22:38:49;99656.14;;;8.44;65.23
34073;BME280;20346;52.702;16.886;2023-04-12T22:41:23;99657.67;;;8.45;65.25
34073;BME280;20346;52.702;16.886;2023-04-12T22:43:56;99660.28;;;8.44;65.35
34073;BME280;20346;52.702;16.886;2023-04-12T22:46:53;99658.75;;;8.43;65.35
34073;BME280;20346;52.702;16.886;2023-04-12T22:49:26;99661.00;;;8.42;65.32
34073;BME280;20346;52.702;16.886;2023-04-12T22:52:00;99665.60;;;8.43;65.44
34073;BME280;20346;52.702;16.886;2023-04-12T22:54:33;99671.92;;;8.45;65.50
34073;BME280;20346;52.702;16.886;2023-04-12T22:57:07;99676.86;;;8.47;65.49
34073;BME280;20346;52.702;16.886;2023-04-12T22:59:40;99677.50;;;8.49;65.53
34073;BME280;20346;52.702;16.886;2023-04-12T23:02:14;99677.30;;;8.51;65.51
34073;BME280;20346;52.702;16.886;2023-04-12T23:04:47;99677.95;;;8.52;65.57
34073;BME280;20346;52.702;16.886;2023-04-12T23:07:21;99674.66;;;8.53;65.53
34073;BME280;20346;52.702;16.886;2023-04-12T23:09:54;99671.02;;;8.54;65.58
34073;BME280;20346;52.702;16.886;2023-04-12T23:12:28;99669.43;;;8.56;65.59
34073;BME280;20346;52.702;16.886;2023-04-12T23:15:01;99661.64;;;8.59;65.62
34073;BME280;20346;52.702;16.886;2023-04-12T23:17:35;99651.95;;;8.62;65.74
34073;BME280;20346;52.702;16.886;2023-04-12T23:20:08;99645.77;;;8.62;65.62
34073;BME280;20346;52.702;16.886;2023-04-12T23:22:42;99642.68;;;8.62;65.71
34073;BME280;20346;52.702;16.886;2023-04-12T23:25:15;99640.77;;;8.63;65.81
34073;BME280;20346;52.702;16.886;2023-04-12T23:27:49;99636.81;;;8.63;65.68
34073;BME280;20346;52.702;16.886;2023-04-12T23:30:22;99632.19;;;8.63;65.83
34073;BME280;20346;52.702;16.886;2023-04-12T23:32:56;99629.43;;;8.62;65.86
34073;BME280;20346;52.702;16.886;2023-04-12T23:35:29;99627.71;;;8.62;65.85
34073;BME280;20346;52.702;16.886;2023-04-12T23:38:03;99619.48;;;8.62;65.84
34073;BME280;20346;52.702;16.886;2023-04-12T23:40:40;99610.56;;;8.61;65.96
34073;BME280;20346;52.702;16.886;2023-04-12T23:43:13;99610.91;;;8.61;65.90
34073;BME280;20346;52.702;16.886;2023-04-12T23:45:50;99606.94;;;8.62;66.01
34073;BME280;20346;52.702;16.886;2023-04-12T23:48:24;99604.52;;;8.63;65.94
34073;BME280;20346;52.702;16.886;2023-04-12T23:50:58;99594.72;;;8.63;65.99
34073;BME280;20346;52.702;16.886;2023-04-12T23:53:32;99592.30;;;8.63;66.12
34073;BME280;20346;52.702;16.886;2023-04-12T23:56:05;99575.80;;;8.64;66.02
34073;BME280;20346;52.702;16.886;2023-04-12T23:58:39;99568.25;;;8.63;66.08
